sensor_id;sensor_type;location;lat;lon;timestamp;P1;durP1;ratioP1;P2;durP2;ratioP2
44165;SDS011;30476;53.468;9.826;2023-06-22T00:00:57;3.90;;;3.67;;
44165;SDS011;30476;53.468;9.826;2023-06-22T00:03:24;3.77;;;3.57;;
44165;SDS011;30476;53.468;9.826;2023-06-22T00:05:50;3.40;;;3.20;;
44165;SDS011;30476;53.468;9.826;2023-06-22T00:08:17;3.87;;;3.67;;
44165;SDS011;30476;53.468;9.826;2023-06-22T00:10:43;3.70;;;3.40;;
44165;SDS011;30476;53.468;9.826;2023-06-22T00:13:10;3.53;;;3.33;;
44165;SDS011;30476;53.468;9.826;2023-06-22T00:15:37;3.83;;;3.60;;
44165;SDS011;30476;53.468;9.826;2023-06-22T00:18:05;3.70;;;3.50;;
44165;SDS011;30476;53.468;9.826;2023-06-22T00:20:32;4.27;;;3.83;;
44165;SDS011;30476;53.468;9.826;2023-06-22T00:23:01;3.60;;;3.10;;
44165;SDS011;30476;53.468;9.826;2023-06-22T00:25:33;3.20;;;3.00;;
44165;SDS011;30476;53.468;9.826;2023-06-22T00:28:02;3.67;;;3.37;;
44165;SDS011;30476;53.468;9.826;2023-06-22T00:30:30;3.93;;;3.73;;
44165;SDS011;30476;53.468;9.826;2023-06-22T00:32:56;3.30;;;3.10;;
44165;SDS011;30476;53.468;9.826;2023-06-22T00:35:22;3.83;;;3.03;;
44165;SDS011;30476;53.468;9.826;2023-06-22T00:37:47;2.77;;;2.67;;
44165;SDS011;30476;53.468;9.826;2023-06-22T00:40:13;3.70;;;3.40;;
44165;SDS011;30476;53.468;9.826;2023-06-22T00:42:40;3.70;;;3.40;;
44165;SDS011;30476;53.468;9.826;2023-06-22T00:45:06;3.50;;;3.23;;
44165;SDS011;30476;53.468;9.826;2023-06-22T00:47:34;4.40;;;4.10;;
44165;SDS011;30476;53.468;9.826;2023-06-22T00:50:00;3.30;;;3.10;;
44165;SDS011;30476;53.468;9.826;2023-06-22T00:52:28;3.90;;;3.57;;
44165;SDS011;30476;53.468;9.826;2023-06-22T00:54:56;2.97;;;2.77;;
44165;SDS011;30476;53.468;9.826;2023-06-22T00:57:24;4.03;;;3.73;;
44165;SDS011;30476;53.468;9.826;2023-06-22T00:59:53;4.13;;;3.83;;
44165;SDS011;30476;53.468;9.826;2023-06-22T01:02:19;4.40;;;4.10;;
44165;SDS011;30476;53.468;9.826;2023-06-22T01:04:45;3.70;;;3.50;;
44165;SDS011;30476;53.468;9.826;2023-06-22T01:12:49;4.97;;;3.30;;
44165;SDS011;30476;53.468;9.826;2023-06-22T01:15:21;3.50;;;3.30;;
44165;SDS011;30476;53.468;9.826;2023-06-22T01:17:54;3.70;;;3.50;;
44165;SDS011;30476;53.468;9.826;2023-06-22T01:20:23;4.57;;;4.27;;
44165;SDS011;30476;53.468;9.826;2023-06-22T01:23:02;3.70;;;3.43;;
44165;SDS011;30476;53.468;9.826;2023-06-22T01:28:34;3.30;;;3.10;;
44165;SDS011;30476;53.468;9.826;2023-06-22T01:31:07;6.23;;;5.73;;
44165;SDS011;30476;53.468;9.826;2023-06-22T01:33:35;3.90;;;3.60;;
44165;SDS011;30476;53.468;9.826;2023-06-22T01:36:02;4.37;;;3.73;;
44165;SDS011;30476;53.468;9.826;2023-06-22T01:38:30;3.60;;;3.30;;
44165;SDS011;30476;53.468;9.826;2023-06-22T01:40:57;3.20;;;3.00;;
44165;SDS011;30476;53.468;9.826;2023-06-22T01:43:25;4.30;;;3.90;;
44165;SDS011;30476;53.468;9.826;2023-06-22T01:45:52;4.17;;;3.97;;
44165;SDS011;30476;53.468;9.826;2023-06-22T01:48:19;3.40;;;3.20;;
44165;SDS011;30476;53.468;9.826;2023-06-22T01:50:45;3.40;;;3.20;;
44165;SDS011;30476;53.468;9.826;2023-06-22T01:53:12;3.80;;;3.50;;
44165;SDS011;30476;53.468;9.826;2023-06-22T01:55:37;4.27;;;3.97;;
44165;SDS011;30476;53.468;9.826;2023-06-22T01:58:03;4.03;;;3.83;;
44165;SDS011;30476;53.468;9.826;2023-06-22T02:00:31;4.50;;;4.20;;
44165;SDS011;30476;53.468;9.826;2023-06-22T02:03:02;4.00;;;3.80;;
44165;SDS011;30476;53.468;9.826;2023-06-22T02:05:41;4.70;;;4.17;;
44165;SDS011;30476;53.468;9.826;2023-06-22T02:08:17;3.90;;;3.70;;
44165;SDS011;30476;53.468;9.826;2023-06-22T02:10:46;3.93;;;3.73;;
44165;SDS011;30476;53.468;9.826;2023-06-22T02:13:14;3.93;;;3.70;;
44165;SDS011;30476;53.468;9.826;2023-06-22T02:15:41;3.90;;;3.70;;
44165;SDS011;30476;53.468;9.826;2023-06-22T02:18:07;4.87;;;4.37;;
44165;SDS011;30476;53.468;9.826;2023-06-22T02:20:36;4.50;;;3.60;;
44165;SDS011;30476;53.468;9.826;2023-06-22T02:23:02;4.50;;;4.10;;
44165;SDS011;30476;53.468;9.826;2023-06-22T02:25:28;5.03;;;4.63;;
44165;SDS011;30476;53.468;9.826;2023-06-22T02:27:54;4.67;;;4.40;;
44165;SDS011;30476;53.468;9.826;2023-06-22T02:30:20;4.50;;;4.10;;
44165;SDS011;30476;53.468;9.826;2023-06-22T02:32:45;4.20;;;4.00;;
44165;SDS011;30476;53.468;9.826;2023-06-22T02:35:11;4.90;;;4.60;;
44165;SDS011;30476;53.468;9.826;2023-06-22T02:37:37;4.27;;;4.00;;
44165;SDS011;30476;53.468;9.826;2023-06-22T02:40:07;4.70;;;4.50;;
44165;SDS011;30476;53.468;9.826;2023-06-22T02:42:37;4.47;;;4.20;;
44165;SDS011;30476;53.468;9.826;2023-06-22T02:45:04;4.57;;;4.23;;
44165;SDS011;30476;53.468;9.826;2023-06-22T02:47:30;4.27;;;3.97;;
44165;SDS011;30476;53.468;9.826;2023-06-22T02:49:56;4.20;;;3.90;;
44165;SDS011;30476;53.468;9.826;2023-06-22T02:52:22;5.40;;;4.00;;
44165;SDS011;30476;53.468;9.826;2023-06-22T02:54:47;3.90;;;3.60;;
44165;SDS011;30476;53.468;9.826;2023-06-22T02:57:13;4.60;;;4.30;;
44165;SDS011;30476;53.468;9.826;2023-06-22T02:59:40;5.13;;;4.73;;
44165;SDS011;30476;53.468;9.826;2023-06-22T03:02:07;5.00;;;4.60;;
44165;SDS011;30476;53.468;9.826;2023-06-22T03:04:34;3.73;;;3.53;;
44165;SDS011;30476;53.468;9.826;2023-06-22T03:07:00;4.67;;;4.37;;
44165;SDS011;30476;53.468;9.826;2023-06-22T03:09:26;3.87;;;3.67;;
44165;SDS011;30476;53.468;9.826;2023-06-22T03:11:56;4.57;;;4.23;;
44165;SDS011;30476;53.468;9.826;2023-06-22T03:14:22;5.10;;;4.20;;
44165;SDS011;30476;53.468;9.826;2023-06-22T03:16:48;4.10;;;3.80;;
44165;SDS011;30476;53.468;9.826;2023-06-22T03:19:14;4.63;;;4.33;;
44165;SDS011;30476;53.468;9.826;2023-06-22T03:21:39;3.83;;;3.63;;
44165;SDS011;30476;53.468;9.826;2023-06-22T03:24:06;5.00;;;4.70;;
44165;SDS011;30476;53.468;9.826;2023-06-22T03:26:32;4.93;;;4.60;;
44165;SDS011;30476;53.468;9.826;2023-06-22T03:28:59;5.43;;;4.57;;
44165;SDS011;30476;53.468;9.826;2023-06-22T03:31:25;5.23;;;4.80;;
44165;SDS011;30476;53.468;9.826;2023-06-22T03:33:51;5.03;;;4.53;;
44165;SDS011;30476;53.468;9.826;2023-06-22T03:36:17;5.43;;;4.93;;
44165;SDS011;30476;53.468;9.826;2023-06-22T03:38:48;5.13;;;4.63;;
44165;SDS011;30476;53.468;9.826;2023-06-22T03:41:15;4.80;;;4.57;;
44165;SDS011;30476;53.468;9.826;2023-06-22T03:43:41;5.40;;;5.00;;
44165;SDS011;30476;53.468;9.826;2023-06-22T03:46:07;5.03;;;4.57;;
44165;SDS011;30476;53.468;9.826;2023-06-22T03:48:33;5.30;;;5.00;;
44165;SDS011;30476;53.468;9.826;2023-06-22T03:50:58;4.30;;;4.00;;
44165;SDS011;30476;53.468;9.826;2023-06-22T03:53:25;4.80;;;4.50;;
44165;SDS011;30476;53.468;9.826;2023-06-22T03:55:51;4.60;;;4.40;;
44165;SDS011;30476;53.468;9.826;2023-06-22T03:58:18;4.97;;;4.57;;
44165;SDS011;30476;53.468;9.826;2023-06-22T04:00:48;5.20;;;4.30;;
44165;SDS011;30476;53.468;9.826;2023-06-22T04:03:15;4.60;;;4.20;;
44165;SDS011;30476;53.468;9.826;2023-06-22T04:05:41;5.07;;;4.67;;
44165;SDS011;30476;53.468;9.826;2023-06-22T04:08:07;5.13;;;4.67;;
44165;SDS011;30476;53.468;9.826;2023-06-22T04:10:33;5.13;;;4.67;;
44165;SDS011;30476;53.468;9.826;2023-06-22T04:12:59;5.00;;;4.70;;
44165;SDS011;30476;53.468;9.826;2023-06-22T04:15:25;5.87;;;5.40;;
44165;SDS011;30476;53.468;9.826;2023-06-22T04:17:51;4.60;;;4.30;;
44165;SDS011;30476;53.468;9.826;2023-06-22T04:20:17;3.93;;;3.73;;
44165;SDS011;30476;53.468;9.826;2023-06-22T04:22:43;4.67;;;4.37;;
44165;SDS011;30476;53.468;9.826;2023-06-22T04:25:08;4.70;;;4.40;;
44165;SDS011;30476;53.468;9.826;2023-06-22T04:27:34;5.17;;;4.87;;
44165;SDS011;30476;53.468;9.826;2023-06-22T04:30:08;5.03;;;4.63;;
44165;SDS011;30476;53.468;9.826;2023-06-22T04:32:34;4.60;;;4.30;;
44165;SDS011;30476;53.468;9.826;2023-06-22T04:35:03;4.90;;;4.53;;
44165;SDS011;30476;53.468;9.826;2023-06-22T04:37:30;5.00;;;4.60;;
44165;SDS011;30476;53.468;9.826;2023-06-22T04:39:56;5.37;;;4.87;;
44165;SDS011;30476;53.468;9.826;2023-06-22T04:42:22;5.43;;;5.03;;
44165;SDS011;30476;53.468;9.826;2023-06-22T04:44:48;5.43;;;4.93;;
44165;SDS011;30476;53.468;9.826;2023-06-22T04:47:13;5.50;;;5.10;;
44165;SDS011;30476;53.468;9.826;2023-06-22T04:49:39;5.23;;;4.73;;
44165;SDS011;30476;53.468;9.826;2023-06-22T04:52:09;5.07;;;4.70;;
44165;SDS011;30476;53.468;9.826;2023-06-22T04:54:37;4.80;;;4.50;;
44165;SDS011;30476;53.468;9.826;2023-06-22T04:57:05;5.07;;;4.70;;
44165;SDS011;30476;53.468;9.826;2023-06-22T04:59:36;6.50;;;4.80;;
44165;SDS011;30476;53.468;9.826;2023-06-22T05:02:04;6.10;;;5.70;;
44165;SDS011;30476;53.468;9.826;2023-06-22T05:04:31;5.50;;;5.10;;
44165;SDS011;30476;53.468;9.826;2023-06-22T05:06:57;4.87;;;4.50;;
44165;SDS011;30476;53.468;9.826;2023-06-22T05:09:24;6.87;;;6.20;;
44165;SDS011;30476;53.468;9.826;2023-06-22T05:11:50;6.37;;;5.80;;
44165;SDS011;30476;53.468;9.826;2023-06-22T05:14:16;6.67;;;6.07;;
44165;SDS011;30476;53.468;9.826;2023-06-22T05:16:43;6.40;;;5.90;;
44165;SDS011;30476;53.468;9.826;2023-06-22T05:19:09;5.87;;;5.47;;
44165;SDS011;30476;53.468;9.826;2023-06-22T05:21:35;7.93;;;6.37;;
44165;SDS011;30476;53.468;9.826;2023-06-22T05:24:01;8.20;;;7.40;;
44165;SDS011;30476;53.468;9.826;2023-06-22T05:26:28;7.00;;;6.33;;
44165;SDS011;30476;53.468;9.826;2023-06-22T05:28:55;7.33;;;6.73;;
44165;SDS011;30476;53.468;9.826;2023-06-22T05:31:21;6.63;;;6.23;;
44165;SDS011;30476;53.468;9.826;2023-06-22T05:33:47;6.63;;;6.23;;
44165;SDS011;30476;53.468;9.826;2023-06-22T05:36:14;7.10;;;6.60;;
44165;SDS011;30476;53.468;9.826;2023-06-22T05:38:40;9.03;;;8.23;;
44165;SDS011;30476;53.468;9.826;2023-06-22T05:41:07;8.00;;;7.20;;
44165;SDS011;30476;53.468;9.826;2023-06-22T05:43:32;18.77;;;7.77;;
44165;SDS011;30476;53.468;9.826;2023-06-22T05:45:59;12.17;;;7.40;;
44165;SDS011;30476;53.468;9.826;2023-06-22T05:48:26;10.27;;;9.20;;
44165;SDS011;30476;53.468;9.826;2023-06-22T05:50:52;11.53;;;10.37;;
44165;SDS011;30476;53.468;9.826;2023-06-22T05:53:19;11.17;;;9.90;;
44165;SDS011;30476;53.468;9.826;2023-06-22T05:55:45;11.80;;;7.90;;
44165;SDS011;30476;53.468;9.826;2023-06-22T05:58:11;12.23;;;9.03;;
44165;SDS011;30476;53.468;9.826;2023-06-22T06:00:38;11.07;;;8.07;;
44165;SDS011;30476;53.468;9.826;2023-06-22T06:03:05;11.10;;;8.20;;
44165;SDS011;30476;53.468;9.826;2023-06-22T06:05:32;57.30;;;11.17;;
44165;SDS011;30476;53.468;9.826;2023-06-22T06:07:59;131.13;;;21.23;;
44165;SDS011;30476;53.468;9.826;2023-06-22T06:10:26;11.03;;;8.03;;
44165;SDS011;30476;53.468;9.826;2023-06-22T06:12:55;7.27;;;6.67;;
44165;SDS011;30476;53.468;9.826;2023-06-22T06:15:21;7.80;;;7.00;;
44165;SDS011;30476;53.468;9.826;2023-06-22T06:17:47;7.93;;;6.80;;
44165;SDS011;30476;53.468;9.826;2023-06-22T06:20:18;6.60;;;6.00;;
44165;SDS011;30476;53.468;9.826;2023-06-22T06:22:45;5.90;;;5.40;;
44165;SDS011;30476;53.468;9.826;2023-06-22T06:25:11;6.70;;;6.10;;
44165;SDS011;30476;53.468;9.826;2023-06-22T06:27:47;5.60;;;5.00;;
44165;SDS011;30476;53.468;9.826;2023-06-22T06:30:15;5.70;;;4.67;;
44165;SDS011;30476;53.468;9.826;2023-06-22T06:32:42;5.17;;;4.77;;
44165;SDS011;30476;53.468;9.826;2023-06-22T06:35:11;5.17;;;4.67;;
44165;SDS011;30476;53.468;9.826;2023-06-22T06:37:38;3.93;;;3.63;;
44165;SDS011;30476;53.468;9.826;2023-06-22T06:40:09;5.60;;;3.30;;
44165;SDS011;30476;53.468;9.826;2023-06-22T06:42:46;4.07;;;3.43;;
44165;SDS011;30476;53.468;9.826;2023-06-22T06:45:20;4.60;;;4.20;;
44165;SDS011;30476;53.468;9.826;2023-06-22T06:47:51;5.63;;;4.37;;
44165;SDS011;30476;53.468;9.826;2023-06-22T06:50:17;3.63;;;3.40;;
44165;SDS011;30476;53.468;9.826;2023-06-22T06:52:43;4.60;;;4.20;;
44165;SDS011;30476;53.468;9.826;2023-06-22T06:55:09;7.13;;;3.57;;
44165;SDS011;30476;53.468;9.826;2023-06-22T06:57:37;5.30;;;3.10;;
44165;SDS011;30476;53.468;9.826;2023-06-22T07:00:07;3.10;;;2.80;;
44165;SDS011;30476;53.468;9.826;2023-06-22T07:02:42;6.53;;;2.63;;
44165;SDS011;30476;53.468;9.826;2023-06-22T07:05:10;2.57;;;2.37;;
44165;SDS011;30476;53.468;9.826;2023-06-22T07:07:37;3.23;;;3.03;;
44165;SDS011;30476;53.468;9.826;2023-06-22T07:10:03;3.47;;;2.87;;
44165;SDS011;30476;53.468;9.826;2023-06-22T07:12:30;3.30;;;3.00;;
44165;SDS011;30476;53.468;9.826;2023-06-22T07:15:06;3.70;;;3.07;;
44165;SDS011;30476;53.468;9.826;2023-06-22T07:17:34;6.53;;;3.00;;
44165;SDS011;30476;53.468;9.826;2023-06-22T07:20:01;3.40;;;3.10;;
44165;SDS011;30476;53.468;9.826;2023-06-22T07:22:35;3.50;;;3.20;;
44165;SDS011;30476;53.468;9.826;2023-06-22T07:25:01;3.70;;;3.50;;
44165;SDS011;30476;53.468;9.826;2023-06-22T07:27:35;3.47;;;3.13;;
44165;SDS011;30476;53.468;9.826;2023-06-22T07:30:08;4.83;;;3.17;;
44165;SDS011;30476;53.468;9.826;2023-06-22T07:32:34;4.87;;;4.00;;
44165;SDS011;30476;53.468;9.826;2023-06-22T07:35:01;4.53;;;3.73;;
44165;SDS011;30476;53.468;9.826;2023-06-22T07:37:27;3.67;;;3.37;;
44165;SDS011;30476;53.468;9.826;2023-06-22T07:39:54;3.17;;;2.97;;
44165;SDS011;30476;53.468;9.826;2023-06-22T07:42:24;5.07;;;3.20;;
44165;SDS011;30476;53.468;9.826;2023-06-22T07:44:50;3.77;;;3.50;;
44165;SDS011;30476;53.468;9.826;2023-06-22T07:47:16;4.17;;;3.80;;
44165;SDS011;30476;53.468;9.826;2023-06-22T07:49:48;2.73;;;2.53;;
44165;SDS011;30476;53.468;9.826;2023-06-22T07:52:14;2.97;;;2.67;;
44165;SDS011;30476;53.468;9.826;2023-06-22T07:54:40;4.77;;;2.83;;
44165;SDS011;30476;53.468;9.826;2023-06-22T07:57:05;2.40;;;2.30;;
44165;SDS011;30476;53.468;9.826;2023-06-22T07:59:31;2.87;;;2.57;;
44165;SDS011;30476;53.468;9.826;2023-06-22T08:01:57;3.70;;;2.33;;
44165;SDS011;30476;53.468;9.826;2023-06-22T08:04:23;2.50;;;2.30;;
44165;SDS011;30476;53.468;9.826;2023-06-22T08:06:48;3.03;;;2.10;;
44165;SDS011;30476;53.468;9.826;2023-06-22T08:09:14;1.93;;;1.83;;
44165;SDS011;30476;53.468;9.826;2023-06-22T08:11:40;2.47;;;2.10;;
44165;SDS011;30476;53.468;9.826;2023-06-22T08:14:06;2.17;;;2.00;;
44165;SDS011;30476;53.468;9.826;2023-06-22T08:16:32;2.37;;;2.27;;
44165;SDS011;30476;53.468;9.826;2023-06-22T08:18:58;4.07;;;2.47;;
44165;SDS011;30476;53.468;9.826;2023-06-22T08:21:23;2.30;;;2.20;;
44165;SDS011;30476;53.468;9.826;2023-06-22T08:23:49;2.03;;;1.83;;
44165;SDS011;30476;53.468;9.826;2023-06-22T08:26:15;4.50;;;2.00;;
44165;SDS011;30476;53.468;9.826;2023-06-22T08:28:41;2.40;;;1.77;;
44165;SDS011;30476;53.468;9.826;2023-06-22T08:31:06;2.30;;;2.10;;
44165;SDS011;30476;53.468;9.826;2023-06-22T08:33:33;2.03;;;1.83;;
44165;SDS011;30476;53.468;9.826;2023-06-22T08:35:59;2.90;;;2.10;;
44165;SDS011;30476;53.468;9.826;2023-06-22T08:38:25;6.47;;;2.20;;
44165;SDS011;30476;53.468;9.826;2023-06-22T08:40:51;2.57;;;2.13;;
44165;SDS011;30476;53.468;9.826;2023-06-22T08:43:16;2.03;;;1.57;;
44165;SDS011;30476;53.468;9.826;2023-06-22T08:45:42;1.80;;;1.70;;
44165;SDS011;30476;53.468;9.826;2023-06-22T08:48:08;2.07;;;1.97;;
44165;SDS011;30476;53.468;9.826;2023-06-22T08:50:33;2.40;;;2.20;;
44165;SDS011;30476;53.468;9.826;2023-06-22T08:52:59;2.40;;;1.63;;
44165;SDS011;30476;53.468;9.826;2023-06-22T08:55:25;2.03;;;1.87;;
44165;SDS011;30476;53.468;9.826;2023-06-22T08:57:50;3.13;;;1.83;;
44165;SDS011;30476;53.468;9.826;2023-06-22T09:00:16;2.30;;;2.20;;
44165;SDS011;30476;53.468;9.826;2023-06-22T09:02:44;2.47;;;1.80;;
44165;SDS011;30476;53.468;9.826;2023-06-22T09:05:11;2.10;;;1.90;;
44165;SDS011;30476;53.468;9.826;2023-06-22T09:07:37;2.90;;;2.30;;
44165;SDS011;30476;53.468;9.826;2023-06-22T09:10:04;2.97;;;2.57;;
44165;SDS011;30476;53.468;9.826;2023-06-22T09:12:30;5.00;;;3.30;;
44165;SDS011;30476;53.468;9.826;2023-06-22T09:14:58;3.03;;;2.73;;
44165;SDS011;30476;53.468;9.826;2023-06-22T09:17:28;3.07;;;2.83;;
44165;SDS011;30476;53.468;9.826;2023-06-22T09:19:53;3.03;;;2.80;;
44165;SDS011;30476;53.468;9.826;2023-06-22T09:22:19;4.17;;;2.30;;
44165;SDS011;30476;53.468;9.826;2023-06-22T09:24:45;2.43;;;2.23;;
44165;SDS011;30476;53.468;9.826;2023-06-22T09:27:11;2.77;;;2.53;;
44165;SDS011;30476;53.468;9.826;2023-06-22T09:29:37;3.97;;;2.40;;
44165;SDS011;30476;53.468;9.826;2023-06-22T09:32:02;2.40;;;2.30;;
44165;SDS011;30476;53.468;9.826;2023-06-22T09:34:28;2.67;;;2.47;;
44165;SDS011;30476;53.468;9.826;2023-06-22T09:36:56;3.20;;;2.70;;
44165;SDS011;30476;53.468;9.826;2023-06-22T09:39:22;2.73;;;2.53;;
44165;SDS011;30476;53.468;9.826;2023-06-22T09:41:48;2.60;;;2.40;;
44165;SDS011;30476;53.468;9.826;2023-06-22T09:44:14;3.33;;;3.00;;
44165;SDS011;30476;53.468;9.826;2023-06-22T09:46:40;2.53;;;2.33;;
44165;SDS011;30476;53.468;9.826;2023-06-22T09:49:06;3.47;;;3.27;;
44165;SDS011;30476;53.468;9.826;2023-06-22T09:51:32;2.10;;;1.90;;
44165;SDS011;30476;53.468;9.826;2023-06-22T09:53:57;2.47;;;2.37;;
44165;SDS011;30476;53.468;9.826;2023-06-22T09:56:23;2.50;;;2.30;;
44165;SDS011;30476;53.468;9.826;2023-06-22T09:58:49;3.00;;;2.80;;
44165;SDS011;30476;53.468;9.826;2023-06-22T10:01:18;2.13;;;2.03;;
44165;SDS011;30476;53.468;9.826;2023-06-22T10:03:43;2.63;;;2.43;;
44165;SDS011;30476;53.468;9.826;2023-06-22T10:06:09;3.30;;;2.17;;
44165;SDS011;30476;53.468;9.826;2023-06-22T10:08:35;2.70;;;2.07;;
44165;SDS011;30476;53.468;9.826;2023-06-22T10:11:01;2.57;;;2.37;;
44165;SDS011;30476;53.468;9.826;2023-06-22T10:13:27;2.23;;;2.13;;
44165;SDS011;30476;53.468;9.826;2023-06-22T10:15:53;3.43;;;2.53;;
44165;SDS011;30476;53.468;9.826;2023-06-22T10:18:19;2.80;;;2.60;;
44165;SDS011;30476;53.468;9.826;2023-06-22T10:20:47;2.83;;;2.20;;
44165;SDS011;30476;53.468;9.826;2023-06-22T10:23:16;3.13;;;2.93;;
44165;SDS011;30476;53.468;9.826;2023-06-22T10:25:42;2.60;;;2.50;;
44165;SDS011;30476;53.468;9.826;2023-06-22T10:28:08;2.67;;;2.47;;
44165;SDS011;30476;53.468;9.826;2023-06-22T10:30:34;2.83;;;2.73;;
44165;SDS011;30476;53.468;9.826;2023-06-22T10:33:00;2.73;;;2.63;;
44165;SDS011;30476;53.468;9.826;2023-06-22T10:35:26;2.40;;;2.20;;
44165;SDS011;30476;53.468;9.826;2023-06-22T10:37:52;3.17;;;2.87;;
44165;SDS011;30476;53.468;9.826;2023-06-22T10:40:19;2.33;;;2.23;;
44165;SDS011;30476;53.468;9.826;2023-06-22T10:42:45;2.47;;;2.30;;
44165;SDS011;30476;53.468;9.826;2023-06-22T10:45:11;3.10;;;2.60;;
44165;SDS011;30476;53.468;9.826;2023-06-22T10:47:37;2.77;;;2.57;;
44165;SDS011;30476;53.468;9.826;2023-06-22T10:50:03;2.73;;;2.63;;
44165;SDS011;30476;53.468;9.826;2023-06-22T10:52:30;3.47;;;3.10;;
44165;SDS011;30476;53.468;9.826;2023-06-22T10:54:55;2.90;;;2.60;;
44165;SDS011;30476;53.468;9.826;2023-06-22T10:57:21;3.20;;;3.00;;
44165;SDS011;30476;53.468;9.826;2023-06-22T10:59:47;5.20;;;2.80;;
44165;SDS011;30476;53.468;9.826;2023-06-22T11:02:13;4.10;;;3.80;;
44165;SDS011;30476;53.468;9.826;2023-06-22T11:04:39;4.00;;;3.80;;
44165;SDS011;30476;53.468;9.826;2023-06-22T11:07:05;2.70;;;2.57;;
44165;SDS011;30476;53.468;9.826;2023-06-22T11:09:31;3.23;;;3.03;;
44165;SDS011;30476;53.468;9.826;2023-06-22T11:11:57;3.17;;;2.97;;
44165;SDS011;30476;53.468;9.826;2023-06-22T11:14:24;2.83;;;2.73;;
44165;SDS011;30476;53.468;9.826;2023-06-22T11:16:50;3.40;;;3.10;;
44165;SDS011;30476;53.468;9.826;2023-06-22T11:19:16;3.60;;;3.40;;
44165;SDS011;30476;53.468;9.826;2023-06-22T11:21:43;3.13;;;2.93;;
44165;SDS011;30476;53.468;9.826;2023-06-22T11:24:09;3.20;;;3.00;;
44165;SDS011;30476;53.468;9.826;2023-06-22T11:26:35;3.23;;;3.03;;
44165;SDS011;30476;53.468;9.826;2023-06-22T11:29:02;3.83;;;3.63;;
44165;SDS011;30476;53.468;9.826;2023-06-22T11:31:31;4.10;;;3.90;;
44165;SDS011;30476;53.468;9.826;2023-06-22T11:33:57;4.30;;;3.80;;
44165;SDS011;30476;53.468;9.826;2023-06-22T11:36:23;4.47;;;3.70;;
44165;SDS011;30476;53.468;9.826;2023-06-22T11:38:50;4.83;;;3.60;;
44165;SDS011;30476;53.468;9.826;2023-06-22T11:41:16;3.83;;;3.63;;
44165;SDS011;30476;53.468;9.826;2023-06-22T11:43:42;4.60;;;4.20;;
44165;SDS011;30476;53.468;9.826;2023-06-22T11:46:08;4.43;;;4.23;;
44165;SDS011;30476;53.468;9.826;2023-06-22T11:48:34;4.77;;;4.47;;
44165;SDS011;30476;53.468;9.826;2023-06-22T11:50:59;3.63;;;3.43;;
44165;SDS011;30476;53.468;9.826;2023-06-22T11:53:26;3.93;;;3.63;;
44165;SDS011;30476;53.468;9.826;2023-06-22T11:55:52;4.70;;;4.30;;
44165;SDS011;30476;53.468;9.826;2023-06-22T11:58:20;4.57;;;4.27;;
44165;SDS011;30476;53.468;9.826;2023-06-22T12:00:46;4.47;;;4.27;;
44165;SDS011;30476;53.468;9.826;2023-06-22T12:03:12;4.73;;;4.50;;
44165;SDS011;30476;53.468;9.826;2023-06-22T12:05:41;3.60;;;3.40;;
44165;SDS011;30476;53.468;9.826;2023-06-22T12:08:07;4.20;;;3.90;;
44165;SDS011;30476;53.468;9.826;2023-06-22T12:10:33;4.40;;;4.20;;
44165;SDS011;30476;53.468;9.826;2023-06-22T12:12:59;4.70;;;4.40;;
44165;SDS011;30476;53.468;9.826;2023-06-22T12:15:25;3.87;;;3.67;;
44165;SDS011;30476;53.468;9.826;2023-06-22T12:17:52;4.30;;;4.00;;
44165;SDS011;30476;53.468;9.826;2023-06-22T12:20:18;4.80;;;3.77;;
44165;SDS011;30476;53.468;9.826;2023-06-22T12:22:44;4.20;;;3.80;;
44165;SDS011;30476;53.468;9.826;2023-06-22T12:25:10;4.20;;;4.00;;
44165;SDS011;30476;53.468;9.826;2023-06-22T12:27:36;6.53;;;4.60;;
44165;SDS011;30476;53.468;9.826;2023-06-22T12:30:03;4.07;;;3.87;;
44165;SDS011;30476;53.468;9.826;2023-06-22T12:32:29;4.57;;;4.37;;
44165;SDS011;30476;53.468;9.826;2023-06-22T12:34:55;6.53;;;4.73;;
44165;SDS011;30476;53.468;9.826;2023-06-22T12:37:21;6.07;;;5.77;;
44165;SDS011;30476;53.468;9.826;2023-06-22T12:39:48;5.10;;;4.80;;
44165;SDS011;30476;53.468;9.826;2023-06-22T12:42:14;6.00;;;5.50;;
44165;SDS011;30476;53.468;9.826;2023-06-22T12:44:41;4.80;;;4.50;;
44165;SDS011;30476;53.468;9.826;2023-06-22T12:47:06;4.70;;;4.50;;
44165;SDS011;30476;53.468;9.826;2023-06-22T12:49:34;4.53;;;4.23;;
44165;SDS011;30476;53.468;9.826;2023-06-22T12:52:00;4.80;;;4.60;;
44165;SDS011;30476;53.468;9.826;2023-06-22T12:54:26;5.23;;;4.80;;
44165;SDS011;30476;53.468;9.826;2023-06-22T12:56:53;5.53;;;5.23;;
44165;SDS011;30476;53.468;9.826;2023-06-22T12:59:19;4.83;;;4.50;;
44165;SDS011;30476;53.468;9.826;2023-06-22T13:01:45;5.00;;;4.60;;
44165;SDS011;30476;53.468;9.826;2023-06-22T13:04:11;4.90;;;4.50;;
44165;SDS011;30476;53.468;9.826;2023-06-22T13:06:43;5.67;;;5.17;;
44165;SDS011;30476;53.468;9.826;2023-06-22T13:09:12;4.90;;;4.60;;
44165;SDS011;30476;53.468;9.826;2023-06-22T13:11:41;5.13;;;4.77;;
44165;SDS011;30476;53.468;9.826;2023-06-22T13:14:08;5.00;;;4.63;;
44165;SDS011;30476;53.468;9.826;2023-06-22T13:16:33;4.70;;;4.40;;
44165;SDS011;30476;53.468;9.826;2023-06-22T13:18:59;5.33;;;5.00;;
44165;SDS011;30476;53.468;9.826;2023-06-22T13:21:25;5.90;;;5.60;;
44165;SDS011;30476;53.468;9.826;2023-06-22T13:23:51;5.07;;;4.77;;
44165;SDS011;30476;53.468;9.826;2023-06-22T13:26:17;5.93;;;5.57;;
44165;SDS011;30476;53.468;9.826;2023-06-22T13:28:42;4.60;;;4.30;;
44165;SDS011;30476;53.468;9.826;2023-06-22T13:31:08;4.40;;;4.20;;
44165;SDS011;30476;53.468;9.826;2023-06-22T13:33:34;5.03;;;4.73;;
44165;SDS011;30476;53.468;9.826;2023-06-22T13:36:00;5.77;;;5.43;;
44165;SDS011;30476;53.468;9.826;2023-06-22T13:38:28;5.50;;;5.20;;
44165;SDS011;30476;53.468;9.826;2023-06-22T13:40:56;5.90;;;5.60;;
44165;SDS011;30476;53.468;9.826;2023-06-22T13:43:23;5.60;;;5.30;;
44165;SDS011;30476;53.468;9.826;2023-06-22T13:45:49;4.93;;;4.73;;
44165;SDS011;30476;53.468;9.826;2023-06-22T13:48:15;5.30;;;4.90;;
44165;SDS011;30476;53.468;9.826;2023-06-22T13:50:41;5.20;;;4.90;;
44165;SDS011;30476;53.468;9.826;2023-06-22T13:53:06;5.73;;;5.43;;
44165;SDS011;30476;53.468;9.826;2023-06-22T13:55:32;5.60;;;5.10;;
44165;SDS011;30476;53.468;9.826;2023-06-22T13:57:58;5.37;;;5.07;;
44165;SDS011;30476;53.468;9.826;2023-06-22T14:00:24;5.40;;;5.10;;
44165;SDS011;30476;53.468;9.826;2023-06-22T14:02:49;5.30;;;4.83;;
44165;SDS011;30476;53.468;9.826;2023-06-22T14:05:16;5.40;;;5.10;;
44165;SDS011;30476;53.468;9.826;2023-06-22T14:07:42;5.33;;;4.97;;
44165;SDS011;30476;53.468;9.826;2023-06-22T14:10:08;4.73;;;4.53;;
44165;SDS011;30476;53.468;9.826;2023-06-22T14:12:34;5.50;;;5.20;;
44165;SDS011;30476;53.468;9.826;2023-06-22T14:15:00;5.80;;;5.43;;
44165;SDS011;30476;53.468;9.826;2023-06-22T14:17:25;6.20;;;5.90;;
44165;SDS011;30476;53.468;9.826;2023-06-22T14:19:52;5.20;;;4.90;;
44165;SDS011;30476;53.468;9.826;2023-06-22T14:22:19;5.50;;;5.20;;
44165;SDS011;30476;53.468;9.826;2023-06-22T14:24:45;5.13;;;4.83;;
44165;SDS011;30476;53.468;9.826;2023-06-22T14:27:11;6.03;;;5.50;;
44165;SDS011;30476;53.468;9.826;2023-06-22T14:29:37;6.03;;;5.73;;
44165;SDS011;30476;53.468;9.826;2023-06-22T14:32:03;5.80;;;5.40;;
44165;SDS011;30476;53.468;9.826;2023-06-22T14:34:31;5.30;;;4.97;;
44165;SDS011;30476;53.468;9.826;2023-06-22T14:36:57;5.77;;;5.43;;
44165;SDS011;30476;53.468;9.826;2023-06-22T14:39:23;5.80;;;5.40;;
44165;SDS011;30476;53.468;9.826;2023-06-22T14:41:48;5.60;;;5.30;;
44165;SDS011;30476;53.468;9.826;2023-06-22T14:44:15;5.20;;;4.90;;
44165;SDS011;30476;53.468;9.826;2023-06-22T14:46:40;5.70;;;5.20;;
44165;SDS011;30476;53.468;9.826;2023-06-22T14:49:06;6.40;;;5.90;;
44165;SDS011;30476;53.468;9.826;2023-06-22T14:51:32;5.40;;;5.10;;
44165;SDS011;30476;53.468;9.826;2023-06-22T14:53:58;5.80;;;5.50;;